sensor_id;sensor_type;location;lat;lon;timestamp;P1;durP1;ratioP1;P2;durP2;ratioP2
18568;SDS011;14780;48.316;-1.050;2022-09-02T00:00:29;5.18;;;3.90;;
18568;SDS011;14780;48.316;-1.050;2022-09-02T00:03:15;5.40;;;4.30;;
18568;SDS011;14780;48.316;-1.050;2022-09-02T00:06:01;5.95;;;4.43;;
18568;SDS011;14780;48.316;-1.050;2022-09-02T00:08:46;5.18;;;4.38;;
18568;SDS011;14780;48.316;-1.050;2022-09-02T00:11:32;5.60;;;4.40;;
18568;SDS011;14780;48.316;-1.050;2022-09-02T00:14:22;5.93;;;3.83;;
18568;SDS011;14780;48.316;-1.050;2022-09-02T00:17:09;5.05;;;4.18;;
18568;SDS011;14780;48.316;-1.050;2022-09-02T00:19:54;5.47;;;4.32;;
18568;SDS011;14780;48.316;-1.050;2022-09-02T00:22:39;5.03;;;4.13;;
18568;SDS011;14780;48.316;-1.050;2022-09-02T00:25:23;5.47;;;4.28;;
18568;SDS011;14780;48.316;-1.050;2022-09-02T00:28:09;6.95;;;4.70;;
18568;SDS011;14780;48.316;-1.050;2022-09-02T00:30:55;5.00;;;4.13;;
18568;SDS011;14780;48.316;-1.050;2022-09-02T00:33:40;4.72;;;3.80;;
18568;SDS011;14780;48.316;-1.050;2022-09-02T00:36:26;4.53;;;3.58;;
18568;SDS011;14780;48.316;-1.050;2022-09-02T00:39:10;4.63;;;3.60;;
18568;SDS011;14780;48.316;-1.050;2022-09-02T00:41:55;6.35;;;4.10;;
18568;SDS011;14780;48.316;-1.050;2022-09-02T00:44:40;6.10;;;3.90;;
18568;SDS011;14780;48.316;-1.050;2022-09-02T00:47:25;5.07;;;4.10;;
18568;SDS011;14780;48.316;-1.050;2022-09-02T00:50:11;5.28;;;3.53;;
18568;SDS011;14780;48.316;-1.050;2022-09-02T00:53:00;6.15;;;3.65;;
18568;SDS011;14780;48.316;-1.050;2022-09-02T00:55:51;6.47;;;4.25;;
18568;SDS011;14780;48.316;-1.050;2022-09-02T00:58:36;4.50;;;3.65;;
18568;SDS011;14780;48.316;-1.050;2022-09-02T01:01:22;4.65;;;3.53;;
18568;SDS011;14780;48.316;-1.050;2022-09-02T01:04:07;8.07;;;4.35;;
18568;SDS011;14780;48.316;-1.050;2022-09-02T01:06:52;5.20;;;3.50;;
18568;SDS011;14780;48.316;-1.050;2022-09-02T01:09:36;5.10;;;3.70;;
18568;SDS011;14780;48.316;-1.050;2022-09-02T01:12:23;4.18;;;3.53;;
18568;SDS011;14780;48.316;-1.050;2022-09-02T01:15:10;5.25;;;3.83;;
18568;SDS011;14780;48.316;-1.050;2022-09-02T01:17:56;4.63;;;3.78;;
18568;SDS011;14780;48.316;-1.050;2022-09-02T01:20:41;4.95;;;3.70;;
18568;SDS011;14780;48.316;-1.050;2022-09-02T01:23:27;5.53;;;3.80;;
18568;SDS011;14780;48.316;-1.050;2022-09-02T01:26:13;3.88;;;3.28;;
18568;SDS011;14780;48.316;-1.050;2022-09-02T01:28:58;5.72;;;3.95;;
18568;SDS011;14780;48.316;-1.050;2022-09-02T01:31:43;5.25;;;3.83;;
18568;SDS011;14780;48.316;-1.050;2022-09-02T01:34:28;4.50;;;3.83;;
18568;SDS011;14780;48.316;-1.050;2022-09-02T01:37:12;4.93;;;3.53;;
18568;SDS011;14780;48.316;-1.050;2022-09-02T01:39:57;4.93;;;3.65;;
18568;SDS011;14780;48.316;-1.050;2022-09-02T01:42:43;5.25;;;3.65;;
18568;SDS011;14780;48.316;-1.050;2022-09-02T01:45:29;4.63;;;3.78;;
18568;SDS011;14780;48.316;-1.050;2022-09-02T01:48:14;5.38;;;3.42;;
18568;SDS011;14780;48.316;-1.050;2022-09-02T01:51:00;5.07;;;3.80;;
18568;SDS011;14780;48.316;-1.050;2022-09-02T01:53:46;4.57;;;3.58;;
18568;SDS011;14780;48.316;-1.050;2022-09-02T01:56:31;5.75;;;4.03;;
18568;SDS011;14780;48.316;-1.050;2022-09-02T01:59:16;5.90;;;4.05;;
18568;SDS011;14780;48.316;-1.050;2022-09-02T02:02:03;5.63;;;3.50;;
18568;SDS011;14780;48.316;-1.050;2022-09-02T02:04:48;6.38;;;3.63;;
18568;SDS011;14780;48.316;-1.050;2022-09-02T02:07:34;4.30;;;3.38;;
18568;SDS011;14780;48.316;-1.050;2022-09-02T02:10:19;4.45;;;3.63;;
18568;SDS011;14780;48.316;-1.050;2022-09-02T02:13:05;4.60;;;3.78;;
18568;SDS011;14780;48.316;-1.050;2022-09-02T02:15:49;4.38;;;3.42;;
18568;SDS011;14780;48.316;-1.050;2022-09-02T02:18:34;5.15;;;3.78;;
18568;SDS011;14780;48.316;-1.050;2022-09-02T02:21:20;6.10;;;3.80;;
18568;SDS011;14780;48.316;-1.050;2022-09-02T02:24:05;4.78;;;3.65;;
18568;SDS011;14780;48.316;-1.050;2022-09-02T02:26:51;4.90;;;3.75;;
18568;SDS011;14780;48.316;-1.050;2022-09-02T02:29:36;5.03;;;3.80;;
18568;SDS011;14780;48.316;-1.050;2022-09-02T02:32:20;5.18;;;3.70;;
18568;SDS011;14780;48.316;-1.050;2022-09-02T02:35:05;5.18;;;3.53;;
18568;SDS011;14780;48.316;-1.050;2022-09-02T02:37:51;4.20;;;3.20;;
18568;SDS011;14780;48.316;-1.050;2022-09-02T02:40:37;4.90;;;3.88;;
18568;SDS011;14780;48.316;-1.050;2022-09-02T02:43:25;6.30;;;3.58;;
18568;SDS011;14780;48.316;-1.050;2022-09-02T02:46:10;4.95;;;3.60;;
18568;SDS011;14780;48.316;-1.050;2022-09-02T02:48:55;5.38;;;3.20;;
18568;SDS011;14780;48.316;-1.050;2022-09-02T02:51:43;4.65;;;3.45;;
18568;SDS011;14780;48.316;-1.050;2022-09-02T02:54:29;5.22;;;3.58;;
18568;SDS011;14780;48.316;-1.050;2022-09-02T02:57:14;4.53;;;3.33;;
18568;SDS011;14780;48.316;-1.050;2022-09-02T03:00:06;4.85;;;3.45;;
18568;SDS011;14780;48.316;-1.050;2022-09-02T03:02:56;6.18;;;3.80;;
18568;SDS011;14780;48.316;-1.050;2022-09-02T03:05:42;4.07;;;3.13;;
18568;SDS011;14780;48.316;-1.050;2022-09-02T03:08:28;4.43;;;3.45;;
18568;SDS011;14780;48.316;-1.050;2022-09-02T03:11:18;4.60;;;3.40;;
18568;SDS011;14780;48.316;-1.050;2022-09-02T03:14:05;5.63;;;3.85;;
18568;SDS011;14780;48.316;-1.050;2022-09-02T03:16:50;4.82;;;3.42;;
18568;SDS011;14780;48.316;-1.050;2022-09-02T03:19:35;6.10;;;3.47;;
18568;SDS011;14780;48.316;-1.050;2022-09-02T03:22:20;5.15;;;3.03;;
18568;SDS011;14780;48.316;-1.050;2022-09-02T03:25:05;5.00;;;3.53;;
18568;SDS011;14780;48.316;-1.050;2022-09-02T03:27:51;3.75;;;3.15;;
18568;SDS011;14780;48.316;-1.050;2022-09-02T03:30:37;4.10;;;3.13;;
18568;SDS011;14780;48.316;-1.050;2022-09-02T03:33:23;3.90;;;3.28;;
18568;SDS011;14780;48.316;-1.050;2022-09-02T03:36:07;4.30;;;3.13;;
18568;SDS011;14780;48.316;-1.050;2022-09-02T03:39:04;4.65;;;3.28;;
18568;SDS011;14780;48.316;-1.050;2022-09-02T03:41:51;4.93;;;3.53;;
18568;SDS011;14780;48.316;-1.050;2022-09-02T03:44:37;5.68;;;2.97;;
18568;SDS011;14780;48.316;-1.050;2022-09-02T03:47:23;5.88;;;3.20;;
18568;SDS011;14780;48.316;-1.050;2022-09-02T03:50:11;4.80;;;3.33;;
18568;SDS011;14780;48.316;-1.050;2022-09-02T03:52:57;4.00;;;3.40;;
18568;SDS011;14780;48.316;-1.050;2022-09-02T03:55:43;4.10;;;3.03;;
18568;SDS011;14780;48.316;-1.050;2022-09-02T03:58:28;4.75;;;3.42;;
18568;SDS011;14780;48.316;-1.050;2022-09-02T04:01:13;4.78;;;3.28;;
18568;SDS011;14780;48.316;-1.050;2022-09-02T04:04:00;4.07;;;3.20;;
18568;SDS011;14780;48.316;-1.050;2022-09-02T04:06:46;4.20;;;3.00;;
18568;SDS011;14780;48.316;-1.050;2022-09-02T04:09:31;3.63;;;3.08;;
18568;SDS011;14780;48.316;-1.050;2022-09-02T04:12:15;4.22;;;3.20;;
18568;SDS011;14780;48.316;-1.050;2022-09-02T04:15:01;4.60;;;3.30;;
18568;SDS011;14780;48.316;-1.050;2022-09-02T04:17:49;3.90;;;3.00;;
18568;SDS011;14780;48.316;-1.050;2022-09-02T04:20:36;4.00;;;3.20;;
18568;SDS011;14780;48.316;-1.050;2022-09-02T04:23:22;5.03;;;3.22;;
18568;SDS011;14780;48.316;-1.050;2022-09-02T04:26:08;3.33;;;2.72;;
18568;SDS011;14780;48.316;-1.050;2022-09-02T04:28:55;3.92;;;3.13;;
18568;SDS011;14780;48.316;-1.050;2022-09-02T04:31:40;3.22;;;2.72;;
18568;SDS011;14780;48.316;-1.050;2022-09-02T04:34:25;4.95;;;3.30;;
18568;SDS011;14780;48.316;-1.050;2022-09-02T04:37:09;4.40;;;3.13;;
18568;SDS011;14780;48.316;-1.050;2022-09-02T04:39:56;3.83;;;3.05;;
18568;SDS011;14780;48.316;-1.050;2022-09-02T04:42:41;3.78;;;2.90;;
18568;SDS011;14780;48.316;-1.050;2022-09-02T04:45:26;4.07;;;3.20;;
18568;SDS011;14780;48.316;-1.050;2022-09-02T04:48:10;4.18;;;3.17;;
18568;SDS011;14780;48.316;-1.050;2022-09-02T04:50:55;3.40;;;2.65;;
18568;SDS011;14780;48.316;-1.050;2022-09-02T04:53:41;3.70;;;2.80;;
18568;SDS011;14780;48.316;-1.050;2022-09-02T04:56:27;4.18;;;3.15;;
18568;SDS011;14780;48.316;-1.050;2022-09-02T04:59:14;3.95;;;3.22;;
18568;SDS011;14780;48.316;-1.050;2022-09-02T05:02:00;3.25;;;2.83;;
18568;SDS011;14780;48.316;-1.050;2022-09-02T05:04:45;3.95;;;3.08;;
18568;SDS011;14780;48.316;-1.050;2022-09-02T05:07:29;3.63;;;2.97;;
18568;SDS011;14780;48.316;-1.050;2022-09-02T05:10:14;3.90;;;2.78;;
18568;SDS011;14780;48.316;-1.050;2022-09-02T05:12:59;4.05;;;2.90;;
18568;SDS011;14780;48.316;-1.050;2022-09-02T05:15:43;4.05;;;2.83;;
18568;SDS011;14780;48.316;-1.050;2022-09-02T05:18:28;3.00;;;2.70;;
18568;SDS011;14780;48.316;-1.050;2022-09-02T05:21:13;4.07;;;2.65;;
18568;SDS011;14780;48.316;-1.050;2022-09-02T05:23:59;3.75;;;3.10;;
18568;SDS011;14780;48.316;-1.050;2022-09-02T05:26:43;3.42;;;2.80;;
18568;SDS011;14780;48.316;-1.050;2022-09-02T05:29:28;3.30;;;2.78;;
18568;SDS011;14780;48.316;-1.050;2022-09-02T05:32:13;4.82;;;3.20;;
18568;SDS011;14780;48.316;-1.050;2022-09-02T05:34:58;8.77;;;4.00;;
18568;SDS011;14780;48.316;-1.050;2022-09-02T05:37:42;33.47;;;11.85;;
18568;SDS011;14780;48.316;-1.050;2022-09-02T05:40:27;33.63;;;11.40;;
18568;SDS011;14780;48.316;-1.050;2022-09-02T05:43:12;22.00;;;9.52;;
18568;SDS011;14780;48.316;-1.050;2022-09-02T05:45:57;25.08;;;10.77;;
18568;SDS011;14780;48.316;-1.050;2022-09-02T05:48:42;24.33;;;9.88;;
18568;SDS011;14780;48.316;-1.050;2022-09-02T05:51:48;25.45;;;9.40;;
18568;SDS011;14780;48.316;-1.050;2022-09-02T05:54:38;20.45;;;8.70;;
18568;SDS011;14780;48.316;-1.050;2022-09-02T05:57:23;18.27;;;8.05;;
18568;SDS011;14780;48.316;-1.050;2022-09-02T06:00:08;20.38;;;9.32;;
18568;SDS011;14780;48.316;-1.050;2022-09-02T06:02:53;21.45;;;8.35;;
18568;SDS011;14780;48.316;-1.050;2022-09-02T06:05:38;18.65;;;7.78;;
18568;SDS011;14780;48.316;-1.050;2022-09-02T06:08:25;20.95;;;8.13;;
18568;SDS011;14780;48.316;-1.050;2022-09-02T06:11:10;21.58;;;7.28;;
18568;SDS011;14780;48.316;-1.050;2022-09-02T06:13:55;19.15;;;7.53;;
18568;SDS011;14780;48.316;-1.050;2022-09-02T06:16:42;12.80;;;6.57;;
18568;SDS011;14780;48.316;-1.050;2022-09-02T06:19:27;12.95;;;6.00;;
18568;SDS011;14780;48.316;-1.050;2022-09-02T06:22:13;13.60;;;6.90;;
18568;SDS011;14780;48.316;-1.050;2022-09-02T06:24:57;17.83;;;8.80;;
18568;SDS011;14780;48.316;-1.050;2022-09-02T06:27:43;17.80;;;8.20;;
18568;SDS011;14780;48.316;-1.050;2022-09-02T06:30:27;18.40;;;7.60;;
18568;SDS011;14780;48.316;-1.050;2022-09-02T06:33:12;12.40;;;7.15;;
18568;SDS011;14780;48.316;-1.050;2022-09-02T06:35:57;12.63;;;7.28;;
18568;SDS011;14780;48.316;-1.050;2022-09-02T06:38:44;14.40;;;7.78;;
18568;SDS011;14780;48.316;-1.050;2022-09-02T06:41:32;12.80;;;7.25;;
18568;SDS011;14780;48.316;-1.050;2022-09-02T06:44:17;12.48;;;5.95;;
18568;SDS011;14780;48.316;-1.050;2022-09-02T06:47:04;10.95;;;6.00;;
18568;SDS011;14780;48.316;-1.050;2022-09-02T06:49:49;10.75;;;5.30;;
18568;SDS011;14780;48.316;-1.050;2022-09-02T06:52:34;9.85;;;5.47;;
18568;SDS011;14780;48.316;-1.050;2022-09-02T06:55:18;10.13;;;5.53;;
18568;SDS011;14780;48.316;-1.050;2022-09-02T06:58:03;10.35;;;5.65;;
18568;SDS011;14780;48.316;-1.050;2022-09-02T07:00:48;9.93;;;5.00;;
18568;SDS011;14780;48.316;-1.050;2022-09-02T07:03:33;9.05;;;4.43;;
18568;SDS011;14780;48.316;-1.050;2022-09-02T07:06:38;13.48;;;4.80;;
18568;SDS011;14780;48.316;-1.050;2022-09-02T07:09:28;11.90;;;5.20;;
18568;SDS011;14780;48.316;-1.050;2022-09-02T07:12:16;6.65;;;4.35;;
18568;SDS011;14780;48.316;-1.050;2022-09-02T07:15:02;7.45;;;4.70;;
18568;SDS011;14780;48.316;-1.050;2022-09-02T07:17:48;8.82;;;5.15;;
18568;SDS011;14780;48.316;-1.050;2022-09-02T07:20:33;6.90;;;4.82;;
18568;SDS011;14780;48.316;-1.050;2022-09-02T07:23:17;7.05;;;4.70;;
18568;SDS011;14780;48.316;-1.050;2022-09-02T07:26:03;8.32;;;4.18;;
18568;SDS011;14780;48.316;-1.050;2022-09-02T07:28:53;6.70;;;4.20;;
18568;SDS011;14780;48.316;-1.050;2022-09-02T07:31:40;8.95;;;3.90;;
18568;SDS011;14780;48.316;-1.050;2022-09-02T07:34:27;8.23;;;4.55;;
18568;SDS011;14780;48.316;-1.050;2022-09-02T07:37:12;7.20;;;4.13;;
18568;SDS011;14780;48.316;-1.050;2022-09-02T07:39:57;7.43;;;4.57;;
18568;SDS011;14780;48.316;-1.050;2022-09-02T07:42:42;6.95;;;3.83;;
18568;SDS011;14780;48.316;-1.050;2022-09-02T07:45:27;6.10;;;4.20;;
18568;SDS011;14780;48.316;-1.050;2022-09-02T07:48:13;7.38;;;4.18;;
18568;SDS011;14780;48.316;-1.050;2022-09-02T07:50:58;6.82;;;3.97;;
18568;SDS011;14780;48.316;-1.050;2022-09-02T07:53:44;5.10;;;3.70;;
18568;SDS011;14780;48.316;-1.050;2022-09-02T07:56:30;5.10;;;4.35;;
18568;SDS011;14780;48.316;-1.050;2022-09-02T07:59:15;6.10;;;4.03;;
18568;SDS011;14780;48.316;-1.050;2022-09-02T08:02:01;6.13;;;3.83;;
18568;SDS011;14780;48.316;-1.050;2022-09-02T08:04:46;4.63;;;3.85;;
18568;SDS011;14780;48.316;-1.050;2022-09-02T08:07:30;5.60;;;4.30;;
18568;SDS011;14780;48.316;-1.050;2022-09-02T08:10:15;5.20;;;4.00;;
18568;SDS011;14780;48.316;-1.050;2022-09-02T08:13:03;8.27;;;4.05;;
18568;SDS011;14780;48.316;-1.050;2022-09-02T08:15:49;5.28;;;3.80;;
18568;SDS011;14780;48.316;-1.050;2022-09-02T08:18:34;5.13;;;3.60;;
18568;SDS011;14780;48.316;-1.050;2022-09-02T08:21:19;4.93;;;3.97;;
18568;SDS011;14780;48.316;-1.050;2022-09-02T08:24:04;3.92;;;3.45;;
18568;SDS011;14780;48.316;-1.050;2022-09-02T08:26:49;4.80;;;3.63;;
18568;SDS011;14780;48.316;-1.050;2022-09-02T08:29:34;4.82;;;3.42;;
18568;SDS011;14780;48.316;-1.050;2022-09-02T08:32:19;6.82;;;4.10;;
18568;SDS011;14780;48.316;-1.050;2022-09-02T08:35:03;7.00;;;3.60;;
18568;SDS011;14780;48.316;-1.050;2022-09-02T08:37:49;5.50;;;3.83;;
18568;SDS011;14780;48.316;-1.050;2022-09-02T08:40:36;4.93;;;3.88;;
18568;SDS011;14780;48.316;-1.050;2022-09-02T08:43:32;4.88;;;3.70;;
18568;SDS011;14780;48.316;-1.050;2022-09-02T08:46:23;5.97;;;3.55;;
18568;SDS011;14780;48.316;-1.050;2022-09-02T08:49:16;5.65;;;3.83;;
18568;SDS011;14780;48.316;-1.050;2022-09-02T08:52:04;5.35;;;3.35;;
18568;SDS011;14780;48.316;-1.050;2022-09-02T08:54:51;5.95;;;3.97;;
18568;SDS011;14780;48.316;-1.050;2022-09-02T08:57:40;4.40;;;3.67;;
18568;SDS011;14780;48.316;-1.050;2022-09-02T09:00:28;5.28;;;3.50;;
18568;SDS011;14780;48.316;-1.050;2022-09-02T09:03:29;4.85;;;3.63;;
18568;SDS011;14780;48.316;-1.050;2022-09-02T09:06:23;6.30;;;3.85;;
18568;SDS011;14780;48.316;-1.050;2022-09-02T09:09:34;5.40;;;3.80;;
18568;SDS011;14780;48.316;-1.050;2022-09-02T09:15:32;5.85;;;3.92;;
18568;SDS011;14780;48.316;-1.050;2022-09-02T09:18:31;5.53;;;3.67;;
18568;SDS011;14780;48.316;-1.050;2022-09-02T09:21:22;4.97;;;3.85;;
18568;SDS011;14780;48.316;-1.050;2022-09-02T09:24:09;6.95;;;3.80;;
18568;SDS011;14780;48.316;-1.050;2022-09-02T09:26:59;5.20;;;4.03;;
18568;SDS011;14780;48.316;-1.050;2022-09-02T09:29:47;5.88;;;3.95;;
18568;SDS011;14780;48.316;-1.050;2022-09-02T09:35:45;4.85;;;3.90;;
18568;SDS011;14780;48.316;-1.050;2022-09-02T09:38:34;5.60;;;4.13;;
18568;SDS011;14780;48.316;-1.050;2022-09-02T09:41:21;4.63;;;3.65;;
18568;SDS011;14780;48.316;-1.050;2022-09-02T09:44:07;4.57;;;3.70;;
18568;SDS011;14780;48.316;-1.050;2022-09-02T09:47:01;5.18;;;3.70;;
18568;SDS011;14780;48.316;-1.050;2022-09-02T09:49:54;5.43;;;3.90;;
18568;SDS011;14780;48.316;-1.050;2022-09-02T09:52:54;4.50;;;3.55;;
18568;SDS011;14780;48.316;-1.050;2022-09-02T09:55:58;7.32;;;4.35;;
18568;SDS011;14780;48.316;-1.050;2022-09-02T09:58:49;5.60;;;3.92;;
18568;SDS011;14780;48.316;-1.050;2022-09-02T10:01:34;5.03;;;3.65;;
18568;SDS011;14780;48.316;-1.050;2022-09-02T10:04:29;5.63;;;4.47;;
18568;SDS011;14780;48.316;-1.050;2022-09-02T10:07:32;6.70;;;4.65;;
18568;SDS011;14780;48.316;-1.050;2022-09-02T10:10:21;7.03;;;4.93;;
18568;SDS011;14780;48.316;-1.050;2022-09-02T10:13:20;5.95;;;4.57;;
18568;SDS011;14780;48.316;-1.050;2022-09-02T10:25:03;6.20;;;3.75;;
18568;SDS011;14780;48.316;-1.050;2022-09-02T10:31:07;9.35;;;4.72;;
18568;SDS011;14780;48.316;-1.050;2022-09-02T10:34:15;7.05;;;4.88;;
18568;SDS011;14780;48.316;-1.050;2022-09-02T10:40:14;6.53;;;4.03;;
18568;SDS011;14780;48.316;-1.050;2022-09-02T10:46:11;6.60;;;5.20;;
18568;SDS011;14780;48.316;-1.050;2022-09-02T11:01:36;6.53;;;5.35;;
18568;SDS011;14780;48.316;-1.050;2022-09-02T11:04:36;7.20;;;4.88;;
18568;SDS011;14780;48.316;-1.050;2022-09-02T11:11:20;8.82;;;5.05;;
18568;SDS011;14780;48.316;-1.050;2022-09-02T11:16:54;5.78;;;4.30;;
18568;SDS011;14780;48.316;-1.050;2022-09-02T11:26:40;7.53;;;5.53;;
18568;SDS011;14780;48.316;-1.050;2022-09-02T11:38:42;7.75;;;5.07;;
18568;SDS011;14780;48.316;-1.050;2022-09-02T11:50:53;9.02;;;5.75;;
18568;SDS011;14780;48.316;-1.050;2022-09-02T11:54:00;9.13;;;5.93;;
18568;SDS011;14780;48.316;-1.050;2022-09-02T11:56:48;6.38;;;5.40;;
18568;SDS011;14780;48.316;-1.050;2022-09-02T12:17:31;7.65;;;5.22;;
18568;SDS011;14780;48.316;-1.050;2022-09-02T12:32:07;7.20;;;5.20;;
18568;SDS011;14780;48.316;-1.050;2022-09-02T12:34:53;6.03;;;5.30;;
18568;SDS011;14780;48.316;-1.050;2022-09-02T12:37:48;6.55;;;5.13;;
18568;SDS011;14780;48.316;-1.050;2022-09-02T12:41:05;8.82;;;5.68;;
18568;SDS011;14780;48.316;-1.050;2022-09-02T12:47:05;6.78;;;5.18;;
18568;SDS011;14780;48.316;-1.050;2022-09-02T12:50:02;6.03;;;4.20;;
18568;SDS011;14780;48.316;-1.050;2022-09-02T12:52:49;6.53;;;4.32;;
18568;SDS011;14780;48.316;-1.050;2022-09-02T12:55:37;5.95;;;4.40;;
18568;SDS011;14780;48.316;-1.050;2022-09-02T12:58:25;6.40;;;4.75;;
18568;SDS011;14780;48.316;-1.050;2022-09-02T13:01:17;5.78;;;4.20;;
18568;SDS011;14780;48.316;-1.050;2022-09-02T13:25:26;6.97;;;4.20;;
18568;SDS011;14780;48.316;-1.050;2022-09-02T13:31:58;6.35;;;4.60;;
18568;SDS011;14780;48.316;-1.050;2022-09-02T13:34:53;7.50;;;4.88;;
18568;SDS011;14780;48.316;-1.050;2022-09-02T13:37:43;5.63;;;4.18;;
18568;SDS011;14780;48.316;-1.050;2022-09-02T13:40:38;6.28;;;4.72;;
18568;SDS011;14780;48.316;-1.050;2022-09-02T13:43:26;6.75;;;4.55;;
18568;SDS011;14780;48.316;-1.050;2022-09-02T13:46:11;6.70;;;4.68;;
18568;SDS011;14780;48.316;-1.050;2022-09-02T13:48:56;7.68;;;4.68;;
18568;SDS011;14780;48.316;-1.050;2022-09-02T13:51:41;5.65;;;4.30;;
18568;SDS011;14780;48.316;-1.050;2022-09-02T13:54:36;5.28;;;4.10;;
18568;SDS011;14780;48.316;-1.050;2022-09-02T13:57:26;6.47;;;4.20;;
18568;SDS011;14780;48.316;-1.050;2022-09-02T14:00:15;9.32;;;4.38;;
18568;SDS011;14780;48.316;-1.050;2022-09-02T14:03:12;6.45;;;5.13;;
18568;SDS011;14780;48.316;-1.050;2022-09-02T14:08:57;5.53;;;4.28;;
18568;SDS011;14780;48.316;-1.050;2022-09-02T14:11:45;4.90;;;4.25;;
18568;SDS011;14780;48.316;-1.050;2022-09-02T14:14:32;4.57;;;3.63;;
18568;SDS011;14780;48.316;-1.050;2022-09-02T14:17:21;5.15;;;3.53;;
18568;SDS011;14780;48.316;-1.050;2022-09-02T14:23:03;5.25;;;3.92;;
18568;SDS011;14780;48.316;-1.050;2022-09-02T14:25:56;4.80;;;4.13;;
18568;SDS011;14780;48.316;-1.050;2022-09-02T14:28:49;5.10;;;3.60;;
18568;SDS011;14780;48.316;-1.050;2022-09-02T14:31:34;5.65;;;3.60;;
18568;SDS011;14780;48.316;-1.050;2022-09-02T14:38:00;6.72;;;3.60;;
18568;SDS011;14780;48.316;-1.050;2022-09-02T14:40:45;4.63;;;3.58;;
18568;SDS011;14780;48.316;-1.050;2022-09-02T14:43:39;4.30;;;3.40;;
18568;SDS011;14780;48.316;-1.050;2022-09-02T14:46:26;4.93;;;3.47;;
18568;SDS011;14780;48.316;-1.050;2022-09-02T14:52:15;4.70;;;3.60;;
18568;SDS011;14780;48.316;-1.050;2022-09-02T14:55:02;4.57;;;3.50;;
18568;SDS011;14780;48.316;-1.050;2022-09-02T14:57:59;4.38;;;3.30;;
18568;SDS011;14780;48.316;-1.050;2022-09-02T15:00:46;5.47;;;3.40;;
18568;SDS011;14780;48.316;-1.050;2022-09-02T15:03:40;4.63;;;3.35;;
18568;SDS011;14780;48.316;-1.050;2022-09-02T15:06:26;4.55;;;3.00;;
18568;SDS011;14780;48.316;-1.050;2022-09-02T15:09:12;4.05;;;3.20;;
18568;SDS011;14780;48.316;-1.050;2022-09-02T15:11:58;4.72;;;3.05;;
18568;SDS011;14780;48.316;-1.050;2022-09-02T15:14:43;4.97;;;3.20;;
18568;SDS011;14780;48.316;-1.050;2022-09-02T15:17:29;3.88;;;3.05;;
18568;SDS011;14780;48.316;-1.050;2022-09-02T15:20:14;3.55;;;3.00;;
18568;SDS011;14780;48.316;-1.050;2022-09-02T15:22:59;8.50;;;3.63;;
18568;SDS011;14780;48.316;-1.050;2022-09-02T15:25:45;4.13;;;3.22;;
18568;SDS011;14780;48.316;-1.050;2022-09-02T15:28:29;6.10;;;3.53;;
18568;SDS011;14780;48.316;-1.050;2022-09-02T15:31:14;4.38;;;3.40;;
18568;SDS011;14780;48.316;-1.050;2022-09-02T15:34:00;4.20;;;3.20;;
18568;SDS011;14780;48.316;-1.050;2022-09-02T15:36:45;5.45;;;4.00;;
18568;SDS011;14780;48.316;-1.050;2022-09-02T15:39:30;4.90;;;3.55;;
18568;SDS011;14780;48.316;-1.050;2022-09-02T15:42:14;4.43;;;3.28;;
18568;SDS011;14780;48.316;-1.050;2022-09-02T15:45:00;9.35;;;4.60;;
18568;SDS011;14780;48.316;-1.050;2022-09-02T15:47:47;6.55;;;4.00;;
18568;SDS011;14780;48.316;-1.050;2022-09-02T15:50:31;6.00;;;3.83;;
18568;SDS011;14780;48.316;-1.050;2022-09-02T15:53:16;5.47;;;3.42;;
18568;SDS011;14780;48.316;-1.050;2022-09-02T15:56:01;8.52;;;3.97;;
18568;SDS011;14780;48.316;-1.050;2022-09-02T15:58:45;6.68;;;3.50;;
18568;SDS011;14780;48.316;-1.050;2022-09-02T16:01:31;5.68;;;3.40;;
18568;SDS011;14780;48.316;-1.050;2022-09-02T16:04:17;7.68;;;3.72;;
18568;SDS011;14780;48.316;-1.050;2022-09-02T16:07:02;6.53;;;4.68;;
18568;SDS011;14780;48.316;-1.050;2022-09-02T16:09:46;7.30;;;4.45;;
18568;SDS011;14780;48.316;-1.050;2022-09-02T16:12:31;10.52;;;5.07;;
18568;SDS011;14780;48.316;-1.050;2022-09-02T16:15:15;9.55;;;5.30;;
18568;SDS011;14780;48.316;-1.050;2022-09-02T16:18:01;8.57;;;5.70;;
18568;SDS011;14780;48.316;-1.050;2022-09-02T16:20:46;7.47;;;4.75;;
18568;SDS011;14780;48.316;-1.050;2022-09-02T16:23:31;6.22;;;4.25;;
18568;SDS011;14780;48.316;-1.050;2022-09-02T16:26:22;6.38;;;4.43;;
18568;SDS011;14780;48.316;-1.050;2022-09-02T16:29:08;5.20;;;4.30;;
18568;SDS011;14780;48.316;-1.050;2022-09-02T16:31:56;5.00;;;3.92;;
18568;SDS011;14780;48.316;-1.050;2022-09-02T16:34:41;7.35;;;4.47;;
18568;SDS011;14780;48.316;-1.050;2022-09-02T16:37:27;8.52;;;4.63;;
18568;SDS011;14780;48.316;-1.050;2022-09-02T16:40:12;6.93;;;4.65;;
18568;SDS011;14780;48.316;-1.050;2022-09-02T16:43:03;8.10;;;4.30;;
18568;SDS011;14780;48.316;-1.050;2022-09-02T16:45:52;5.15;;;3.88;;
18568;SDS011;14780;48.316;-1.050;2022-09-02T16:48:37;6.30;;;3.88;;
18568;SDS011;14780;48.316;-1.050;2022-09-02T16:51:23;6.60;;;3.92;;
18568;SDS011;14780;48.316;-1.050;2022-09-02T16:54:08;6.57;;;3.97;;
18568;SDS011;14780;48.316;-1.050;2022-09-02T16:56:53;4.63;;;3.53;;
18568;SDS011;14780;48.316;-1.050;2022-09-02T16:59:38;4.95;;;3.90;;
18568;SDS011;14780;48.316;-1.050;2022-09-02T17:02:22;5.85;;;3.60;;
18568;SDS011;14780;48.316;-1.050;2022-09-02T17:05:07;5.10;;;3.67;;
18568;SDS011;14780;48.316;-1.050;2022-09-02T17:07:53;4.82;;;3.40;;
18568;SDS011;14780;48.316;-1.050;2022-09-02T17:10:41;5.20;;;3.63;;
18568;SDS011;14780;48.316;-1.050;2022-09-02T17:13:26;4.63;;;3.80;;
18568;SDS011;14780;48.316;-1.050;2022-09-02T17:16:11;6.95;;;3.60;;
18568;SDS011;14780;48.316;-1.050;2022-09-02T17:18:55;4.35;;;3.38;;
18568;SDS011;14780;48.316;-1.050;2022-09-02T17:21:41;4.43;;;3.38;;
18568;SDS011;14780;48.316;-1.050;2022-09-02T17:24:28;5.10;;;3.38;;
18568;SDS011;14780;48.316;-1.050;2022-09-02T17:27:14;4.88;;;3.50;;
18568;SDS011;14780;48.316;-1.050;2022-09-02T17:29:58;6.72;;;3.55;;
18568;SDS011;14780;48.316;-1.050;2022-09-02T17:32:43;4.10;;;3.20;;
18568;SDS011;14780;48.316;-1.050;2022-09-02T17:35:28;6.85;;;3.60;;
18568;SDS011;14780;48.316;-1.050;2022-09-02T17:38:13;4.35;;;3.30;;
18568;SDS011;14780;48.316;-1.050;2022-09-02T17:40:57;5.32;;;3.88;;
18568;SDS011;14780;48.316;-1.050;2022-09-02T17:44:01;5.75;;;3.65;;
18568;SDS011;14780;48.316;-1.050;2022-09-02T17:46:46;4.47;;;3.55;;
18568;SDS011;14780;48.316;-1.050;2022-09-02T17:49:31;6.20;;;3.72;;
18568;SDS011;14780;48.316;-1.050;2022-09-02T17:52:20;5.50;;;3.72;;
18568;SDS011;14780;48.316;-1.050;2022-09-02T17:55:06;5.70;;;3.40;;
18568;SDS011;14780;48.316;-1.050;2022-09-02T17:57:59;6.25;;;3.75;;
18568;SDS011;14780;48.316;-1.050;2022-09-02T18:00:52;4.82;;;3.70;;
18568;SDS011;14780;48.316;-1.050;2022-09-02T18:07:08;5.68;;;3.67;;
18568;SDS011;14780;48.316;-1.050;2022-09-02T18:10:02;4.95;;;3.33;;
18568;SDS011;14780;48.316;-1.050;2022-09-02T18:12:47;5.50;;;3.95;;
18568;SDS011;14780;48.316;-1.050;2022-09-02T18:15:40;6.68;;;3.65;;
18568;SDS011;14780;48.316;-1.050;2022-09-02T18:18:39;6.65;;;3.50;;
18568;SDS011;14780;48.316;-1.050;2022-09-02T18:25:14;5.20;;;4.20;;
18568;SDS011;14780;48.316;-1.050;2022-09-02T18:28:33;9.05;;;4.75;;
18568;SDS011;14780;48.316;-1.050;2022-09-02T18:34:53;5.38;;;3.60;;
18568;SDS011;14780;48.316;-1.050;2022-09-02T18:41:11;5.10;;;3.70;;
18568;SDS011;14780;48.316;-1.050;2022-09-02T18:47:05;5.20;;;3.92;;
18568;SDS011;14780;48.316;-1.050;2022-09-02T18:50:04;4.47;;;3.42;;
18568;SDS011;14780;48.316;-1.050;2022-09-02T18:52:50;9.25;;;4.32;;
18568;SDS011;14780;48.316;-1.050;2022-09-02T18:55:39;6.47;;;4.22;;
18568;SDS011;14780;48.316;-1.050;2022-09-02T18:58:49;5.53;;;3.85;;
18568;SDS011;14780;48.316;-1.050;2022-09-02T19:01:53;4.70;;;3.83;;
18568;SDS011;14780;48.316;-1.050;2022-09-02T19:04:40;4.70;;;3.08;;
18568;SDS011;14780;48.316;-1.050;2022-09-02T19:07:25;4.78;;;3.60;;
18568;SDS011;14780;48.316;-1.050;2022-09-02T19:10:29;6.72;;;4.53;;